Virgilina, VA (24598)

05:33 AM EDT del 01 Aprile 2015 (GMT -0400)
Oak Hill | | Change Station
CLOSE
Current Station
Stazione meteo personale
Location: Oxford, NC
Altitudine: 499 ft
Stazioni meteo nelle vicinanze

Alt. 499 ft 36.44 °N, 78.73 °W | Updated 2 minutes ago

Sereno
Sereno
46.9 °F
Sembra 47 °F
N
0.0
Vento Variabile Vento da NE

Oggi
Massima -- | Minima -- °F
--% Possibilità di precip.
Ieri
Massima -- | Minima -- °F
Precip. -- in
7:01 AM 7:37 PM
Gobba a ponente, 91% visible
Pressione 29.94 in
Visibilità 10.0 miglia
Nuvole Sereno
Raffreddamento del vento 47 °F
Punto di rugiada 38 °F
Umidità 72%
Piovosità 0.00 in
Spessore del manto nevoso Non disponibile.
Raggi UV 0 fuori da 12
Polline 10.30 fuori da 12
Qualità dell'aria Non disponibile.
Flu Activity Non disponibile.
METAR KHNZ 010915Z AUTO 05005KT 10SM CLR 09/03 A2994 RMK AO2 T00910026

More Conditions Fewer Conditions

Pressione 29.94 in
Visibilità 10.0 miglia
Nuvole Sereno
Raffreddamento del vento 47 °F
Punto di rugiada 38 °F
Umidità 72%
Piovosità 0.00 in
Spessore del manto nevoso Non disponibile.
Raggi UV 0 fuori da 12
Polline 10.30 fuori da 12
Qualità dell'aria Non disponibile.
Flu Activity Non disponibile.
METAR KHNZ 010915Z AUTO 05005KT 10SM CLR 09/03 A2994 RMK AO2 T00910026

More Conditions Fewer Conditions

10-Day Weather Forecast

Almanac

Astronomia

Apr. 01, 2015 Alba Tramonto
Ora attuale
Crepuscolo civile
Crepuscolo nautico
Crepuscolo astronomico
Luna
Estensione della luce visibile
Lunghezza del giorno
Tomorrow will be .
, % of the Moon is Illuminated

Gli estremi di oggi

State Highs State Lows

Community

WunderPhotos

Upload Photos

1,809,933 foto caricate!

WunderBlogs® & News

Nearby

Qualità dell'aria

  Qualità dell'aria Indice AQ Inquinante
Not available.

Profondità neve

Stazione Profondità Altitudine

Attività sismica

Città  Distanza Mag. Data & Ora
Minimo Magnitudo Mostrato è 2.5.

Temperature delle acque costiere

Località Temperatura

Stations

Stazioni meteo nelle vicinanze

Ubicazione della stazione Temp. Raffreddamento del vento Punto di rugiada Umidità Vento Precip. Alt. Aggiornato Tipo